YFC91 WSSL-WSJC

Flight info

Callsign YFC91
Flight time N/A
Altitude 8000
Route LATA
Aircraft DA40/L-SBDGRY/S

Departure

Time 2026-04-28 15:46
Airport Seletar Airport (WSSL)

Arrival

Time N/A
Airport WSJC
Time Latitude Longitude Altitude Speed Heading
2026-04-28 15:40 1.41549 103.86547 49 ft 0 kts 123°
2026-04-28 15:43 1.41523 103.86586 50 ft 15 kts 125°
2026-04-28 15:43 1.41430 103.86594 49 ft 18 kts 212°
2026-04-28 15:43 1.41303 103.86508 49 ft 20 kts 212°
2026-04-28 15:43 1.41202 103.86444 49 ft 14 kts 212°
2026-04-28 15:44 1.41079 103.86362 47 ft 24 kts 216°
2026-04-28 15:44 1.40963 103.86287 47 ft 18 kts 214°
2026-04-28 15:44 1.40896 103.86229 47 ft 6 kts 226°
2026-04-28 15:44 1.40884 103.86237 47 ft 5 kts 62°
2026-04-28 15:45 1.40889 103.86242 47 ft 0 kts 33°
2026-04-28 15:45 1.40897 103.86247 47 ft 12 kts 33°
2026-04-28 15:45 1.41132 103.86399 48 ft 65 kts 34°
2026-04-28 15:45 1.41574 103.86691 161 ft 80 kts 31°
2026-04-28 15:46 1.42028 103.86982 396 ft 77 kts 29°
2026-04-28 15:46 1.42488 103.87252 618 ft 76 kts 26°
2026-04-28 15:46 1.42939 103.87535 813 ft 76 kts 28°
2026-04-28 15:46 1.43228 103.87251 931 ft 79 kts 255°
2026-04-28 15:47 1.42880 103.86824 1096 ft 83 kts 219°
2026-04-28 15:47 1.42416 103.86447 1255 ft 87 kts 215°
2026-04-28 15:47 1.41887 103.86134 1396 ft 92 kts 208°
2026-04-28 15:47 1.41317 103.85801 1515 ft 97 kts 211°
2026-04-28 15:48 1.40726 103.85453 1645 ft 100 kts 209°
2026-04-28 15:48 1.40336 103.84904 1735 ft 102 kts 264°
2026-04-28 15:48 1.40258 103.84224 1897 ft 100 kts 253°